Terminal Aerodrome Forecast
Issued by NWS

Home | Current Version | Previous Version | Text Only | Print | Product List | Glossary On
Versions: 1 2 3 4 5 6 7 8 9 10 11 12 13 14 15 16 17 18
000
FTUS43 KEAX 171100
TAFSTJ
TAF
KSTJ 171125Z 1712/1812 01004KT 5SM BR BKN015
      TEMPO 1712/1714 3SM BR BKN008
     FM171600 04004KT P6SM BKN025
     FM171800 06006KT P6SM SCT040
     FM180000 16005KT P6SM SCT250=

USA.gov is the U.S. government's official web portal to all federal, state and local government web resources and services.